createdAt,value
2018-04-18T00:01:55.700Z,5.82
2018-04-18T00:04:24.055Z,4.72
2018-04-18T00:06:51.594Z,4.43
2018-04-18T00:09:19.119Z,4.55
2018-04-18T00:11:46.594Z,5.20
2018-04-18T00:14:14.081Z,6.55
2018-04-18T00:16:42.375Z,6.00
2018-04-18T00:19:09.929Z,4.22
2018-04-18T00:21:37.412Z,3.90
2018-04-18T00:24:13.942Z,4.35
2018-04-18T00:26:41.482Z,10.18
2018-04-18T00:29:12.664Z,7.07
2018-04-18T00:31:40.215Z,4.18
2018-04-18T00:34:07.714Z,6.82
2018-04-18T00:36:35.201Z,4.75
2018-04-18T00:39:02.679Z,5.05
2018-04-18T00:41:30.197Z,6.03
2018-04-18T00:43:57.731Z,6.18
2018-04-18T00:46:25.233Z,7.85
2018-04-18T00:48:52.712Z,5.70
2018-04-18T00:51:30.020Z,5.10
2018-04-18T00:53:57.659Z,7.28
2018-04-18T00:56:25.182Z,6.43
2018-04-18T00:58:52.696Z,5.90
2018-04-18T01:01:20.966Z,5.80
2018-04-18T01:04:09.475Z,5.43
2018-04-18T01:06:36.967Z,5.40
2018-04-18T01:09:04.447Z,8.15
2018-04-18T01:11:37.883Z,6.03
2018-04-18T01:14:06.143Z,5.35
2018-04-18T01:16:44.364Z,4.20
2018-04-18T01:19:11.888Z,4.20
2018-04-18T01:21:39.390Z,5.22
2018-04-18T01:24:13.792Z,5.03
2018-04-18T01:26:41.296Z,4.45
2018-04-18T01:29:08.775Z,4.85
2018-04-18T01:31:43.099Z,4.73
2018-04-18T01:34:11.683Z,4.28
2018-04-18T01:36:39.285Z,4.40
2018-04-18T01:39:06.961Z,4.75
2018-04-18T01:41:35.238Z,4.00
2018-04-18T01:44:02.690Z,4.82
2018-04-18T01:46:30.190Z,6.25
2018-04-18T01:49:09.634Z,5.07
2018-04-18T01:51:43.108Z,4.30
2018-04-18T01:54:10.737Z,3.87
2018-04-18T01:56:39.004Z,4.18
2018-04-18T01:59:06.533Z,4.10
2018-04-18T02:04:32.874Z,4.12
2018-04-18T02:07:01.130Z,4.20
2018-04-18T02:09:28.651Z,5.68
2018-04-18T02:11:58.116Z,4.22
2018-04-18T02:14:25.663Z,4.00
2018-04-18T02:16:53.150Z,4.37
2018-04-18T02:19:20.636Z,4.05
2018-04-18T02:21:48.976Z,5.07
2018-04-18T02:24:20.223Z,5.87
2018-04-18T02:26:47.723Z,4.37
2018-04-18T02:29:15.210Z,5.25
2018-04-18T02:31:42.718Z,3.75
2018-04-18T02:37:09.847Z,4.53
2018-04-18T02:45:14.213Z,4.37
2018-04-18T02:47:42.674Z,3.97
2018-04-18T02:50:10.236Z,3.90
2018-04-18T02:52:37.780Z,5.87
2018-04-18T02:55:05.282Z,6.00
2018-04-18T02:57:32.861Z,4.10
2018-04-18T03:00:00.369Z,3.83
2018-04-18T03:02:28.004Z,5.28
2018-04-18T03:04:55.571Z,4.27
2018-04-18T03:07:23.058Z,4.53
2018-04-18T03:09:51.412Z,4.07
2018-04-18T03:12:18.889Z,3.97
2018-04-18T03:14:46.376Z,4.30
2018-04-18T03:17:13.902Z,5.12
2018-04-18T03:19:41.476Z,4.45
2018-04-18T03:22:09.789Z,4.70
2018-04-18T03:24:37.266Z,5.03
2018-04-18T03:27:05.013Z,4.95
2018-04-18T03:29:32.525Z,5.43
2018-04-18T03:32:00.009Z,4.78
2018-04-18T03:34:45.028Z,4.43
2018-04-18T03:37:14.148Z,5.28
2018-04-18T03:39:41.624Z,5.43
2018-04-18T03:42:09.116Z,4.55
2018-04-18T03:44:41.920Z,4.85
2018-04-18T03:47:09.451Z,5.30
2018-04-18T03:49:36.896Z,7.63
2018-04-18T03:52:04.403Z,7.22
2018-04-18T03:54:31.879Z,7.87
2018-04-18T03:56:59.387Z,7.18
2018-04-18T03:59:26.898Z,8.13
2018-04-18T04:02:07.945Z,7.60
2018-04-18T04:04:43.820Z,6.78
2018-04-18T04:07:12.375Z,5.97
2018-04-18T04:18:41.638Z,5.72
2018-04-18T04:27:11.901Z,9.27
2018-04-18T04:29:44.086Z,7.47
2018-04-18T04:32:12.588Z,5.62
2018-04-18T04:34:43.323Z,5.95
2018-04-18T04:37:13.970Z,6.00
2018-04-18T04:39:43.057Z,6.68
2018-04-18T04:42:12.490Z,6.87
2018-04-18T04:44:44.129Z,11.88
2018-04-18T04:47:12.769Z,8.48
2018-04-18T04:49:42.753Z,7.18
2018-04-18T04:55:13.389Z,8.85
2018-04-18T04:57:41.015Z,6.20
2018-04-18T05:00:08.516Z,6.22
2018-04-18T05:02:36.761Z,8.38
2018-04-18T05:05:12.644Z,7.90
2018-04-18T05:07:40.174Z,12.25
2018-04-18T05:10:08.639Z,9.87
2018-04-18T05:12:42.204Z,11.63
2018-04-18T05:15:13.202Z,10.88
2018-04-18T05:17:42.352Z,8.85
2018-04-18T05:20:12.592Z,10.02
2018-04-18T05:28:31.148Z,10.25
2018-04-18T05:33:53.479Z,10.07
2018-04-18T05:45:15.017Z,9.00
2018-04-18T05:47:42.558Z,6.97
2018-04-18T05:50:13.788Z,8.47
2018-04-18T05:52:43.061Z,6.32
2018-04-18T05:58:12.398Z,7.15
2018-04-18T06:00:43.766Z,8.13
2018-04-18T06:03:11.504Z,11.97
2018-04-18T06:08:42.934Z,11.38
2018-04-18T06:11:13.134Z,7.43
2018-04-18T06:13:41.271Z,6.45
2018-04-18T06:16:14.733Z,7.50
2018-04-18T06:18:43.248Z,6.55
2018-04-18T06:21:10.851Z,6.95
2018-04-18T06:23:38.441Z,12.15
2018-04-18T06:26:06.067Z,5.20
2018-04-18T06:28:33.594Z,8.95
2018-04-18T06:31:01.592Z,7.15
2018-04-18T06:33:39.223Z,6.35
2018-04-18T06:36:06.879Z,5.80
2018-04-18T06:38:34.429Z,9.23
2018-04-18T06:41:01.930Z,8.23
2018-04-18T06:43:29.737Z,6.90
2018-04-18T06:45:57.316Z,6.12
2018-04-18T06:48:24.841Z,8.90
2018-04-18T06:50:53.111Z,9.63
2018-04-18T06:53:20.603Z,6.07
2018-04-18T06:55:48.151Z,8.88
2018-04-18T06:58:16.473Z,9.55
2018-04-18T07:00:44.243Z,8.00
2018-04-18T07:03:12.518Z,6.97
2018-04-18T07:05:40.878Z,8.20
2018-04-18T07:08:18.630Z,8.02
2018-04-18T07:10:47.022Z,7.78
2018-04-18T07:13:15.479Z,7.75
2018-04-18T07:15:43.034Z,6.25
2018-04-18T07:18:12.396Z,7.90
2018-04-18T07:20:41.336Z,10.17
2018-04-18T07:23:08.950Z,9.93
2018-04-18T07:25:37.312Z,11.70
2018-04-18T07:28:04.834Z,7.87
2018-04-18T07:30:33.111Z,10.07
2018-04-18T07:33:01.454Z,11.90
2018-04-18T07:35:28.935Z,9.40
2018-04-18T07:37:56.444Z,11.77
2018-04-18T07:40:23.955Z,10.70
2018-04-18T07:42:51.467Z,9.18
2018-04-18T07:45:18.977Z,12.00
2018-04-18T07:47:46.560Z,13.45
2018-04-18T07:50:14.135Z,11.77
2018-04-18T07:52:41.734Z,11.02
2018-04-18T07:55:11.958Z,11.57
2018-04-18T07:57:39.629Z,12.85
2018-04-18T08:00:07.155Z,10.75
2018-04-18T08:02:34.652Z,11.20
2018-04-18T08:05:03.764Z,16.33
2018-04-18T08:07:31.394Z,13.70
2018-04-18T08:09:58.972Z,12.50
2018-04-18T08:12:27.217Z,16.55
2018-04-18T08:14:54.770Z,13.43
2018-04-18T08:17:22.266Z,12.57
2018-04-18T08:19:50.416Z,12.80
2018-04-18T08:22:17.928Z,11.85
2018-04-18T08:24:45.508Z,15.87
2018-04-18T08:27:13.062Z,11.45
2018-04-18T08:29:42.588Z,11.90
2018-04-18T08:32:11.518Z,15.75
2018-04-18T08:34:39.027Z,13.88
2018-04-18T08:37:06.734Z,10.02
2018-04-18T08:39:34.325Z,10.57
2018-04-18T08:42:03.362Z,11.65
2018-04-18T08:44:36.787Z,8.77
2018-04-18T08:47:04.315Z,10.35
2018-04-18T08:49:33.800Z,11.15
2018-04-18T08:52:02.091Z,13.48
2018-04-18T08:54:29.604Z,13.20
2018-04-18T08:56:59.278Z,13.50
2018-04-18T08:59:27.677Z,11.32
2018-04-18T09:01:56.839Z,13.32
2018-04-18T09:04:25.942Z,10.00
2018-04-18T09:06:54.219Z,11.30
2018-04-18T09:09:22.448Z,9.57
2018-04-18T09:11:50.090Z,10.37
2018-04-18T09:14:17.591Z,10.05
2018-04-18T09:16:45.205Z,10.43
2018-04-18T09:19:13.474Z,8.80
2018-04-18T09:21:41.729Z,11.60
2018-04-18T09:24:09.404Z,8.10
2018-04-18T09:26:37.739Z,8.07
2018-04-18T09:29:06.027Z,8.37
2018-04-18T09:31:34.284Z,6.43
2018-04-18T09:34:02.017Z,8.47
2018-04-18T09:36:29.595Z,6.18
2018-04-18T09:38:57.148Z,10.43
2018-04-18T09:41:25.405Z,9.20
2018-04-18T09:43:58.656Z,8.52
2018-04-18T09:46:27.002Z,6.87
2018-04-18T09:48:54.476Z,7.03
2018-04-18T09:51:22.791Z,5.70
2018-04-18T09:53:50.250Z,7.10
2018-04-18T09:56:18.532Z,6.50
2018-04-18T09:58:46.821Z,5.93
2018-04-18T10:01:20.020Z,5.77
2018-04-18T10:03:53.935Z,7.10
2018-04-18T10:06:22.307Z,5.07
2018-04-18T10:08:49.828Z,5.32
2018-04-18T10:11:17.818Z,6.37
2018-04-18T10:13:45.321Z,6.40
2018-04-18T10:16:13.088Z,5.00
2018-04-18T10:18:40.585Z,6.32
2018-04-18T10:21:15.912Z,4.90
2018-04-18T10:23:43.545Z,9.23
2018-04-18T10:26:11.215Z,6.67
2018-04-18T10:28:38.859Z,7.43
2018-04-18T10:31:06.524Z,5.77
2018-04-18T10:33:34.110Z,5.10
2018-04-18T10:36:03.601Z,6.78
2018-04-18T10:38:31.278Z,4.78
2018-04-18T10:40:58.765Z,4.50
2018-04-18T10:43:27.168Z,4.35
2018-04-18T10:45:54.628Z,3.25
2018-04-18T10:48:24.084Z,4.47
2018-04-18T10:50:52.500Z,3.83
2018-04-18T10:53:20.213Z,4.73
2018-04-18T10:55:47.924Z,9.52
2018-04-18T10:58:15.459Z,7.00
2018-04-18T11:00:43.003Z,3.90
2018-04-18T11:03:10.534Z,5.90
2018-04-18T11:05:43.969Z,6.95
2018-04-18T11:08:11.508Z,4.25
2018-04-18T11:10:39.219Z,3.93
2018-04-18T11:13:10.801Z,6.18
2018-04-18T11:15:38.391Z,4.68
2018-04-18T11:18:06.725Z,5.67
2018-04-18T11:20:35.038Z,4.73
2018-04-18T11:25:56.529Z,5.78
2018-04-18T11:28:24.784Z,7.17
2018-04-18T11:30:52.462Z,4.10
2018-04-18T11:33:19.978Z,6.68
2018-04-18T11:35:48.371Z,5.47
2018-04-18T11:38:16.654Z,3.40
2018-04-18T11:40:44.975Z,3.70
2018-04-18T11:43:12.511Z,2.97
2018-04-18T11:45:40.821Z,3.27
2018-04-18T11:48:08.333Z,4.00
2018-04-18T11:50:35.952Z,6.40
2018-04-18T11:53:03.451Z,5.93
2018-04-18T11:55:31.014Z,4.50
2018-04-18T11:57:59.454Z,4.53
2018-04-18T12:00:40.823Z,2.90
2018-04-18T12:03:08.477Z,3.35
2018-04-18T12:05:36.571Z,5.45
2018-04-18T12:08:04.213Z,7.45
2018-04-18T12:10:31.752Z,6.75
2018-04-18T12:12:59.274Z,4.17
2018-04-18T12:15:27.781Z,5.10
2018-04-18T12:17:55.348Z,4.75
2018-04-18T12:20:22.880Z,4.15
2018-04-18T12:22:51.156Z,6.80
2018-04-18T12:25:19.420Z,4.50
2018-04-18T12:27:47.006Z,5.57
2018-04-18T12:30:14.528Z,3.57
2018-04-18T12:32:42.078Z,6.12
2018-04-18T12:35:12.676Z,5.18
2018-04-18T12:37:40.235Z,4.90
2018-04-18T12:40:07.803Z,5.20
2018-04-18T12:42:35.440Z,3.90
2018-04-18T12:45:03.035Z,5.12
2018-04-18T12:47:30.559Z,4.07
2018-04-18T12:49:58.839Z,5.43
2018-04-18T12:52:26.436Z,4.37
2018-04-18T12:54:54.082Z,6.28
2018-04-18T12:57:21.560Z,5.25
2018-04-18T12:59:49.187Z,3.70
2018-04-18T13:02:16.710Z,6.12
2018-04-18T13:04:45.002Z,5.32
2018-04-18T13:07:13.288Z,5.97
2018-04-18T13:09:41.527Z,6.30
2018-04-18T13:12:09.032Z,3.55
2018-04-18T13:14:38.367Z,5.20
2018-04-18T13:17:06.842Z,4.40
2018-04-18T13:19:35.186Z,4.68
2018-04-18T13:22:02.709Z,8.52
2018-04-18T13:24:32.938Z,4.87
2018-04-18T13:27:01.240Z,4.93
2018-04-18T13:29:28.771Z,4.60
2018-04-18T13:31:56.249Z,4.40
2018-04-18T13:34:23.807Z,4.95
2018-04-18T13:36:51.348Z,4.37
2018-04-18T13:39:18.851Z,6.40
2018-04-18T13:41:46.424Z,4.95
2018-04-18T13:44:14.734Z,3.75
2018-04-18T13:46:43.104Z,5.80
2018-04-18T13:49:10.626Z,4.97
2018-04-18T13:51:39.107Z,4.63
2018-04-18T13:54:10.861Z,4.70
2018-04-18T13:56:39.136Z,4.10
2018-04-18T13:59:07.460Z,4.37
2018-04-18T14:01:34.941Z,3.50
2018-04-18T14:04:02.484Z,5.13
2018-04-18T14:06:30.704Z,3.62
2018-04-18T14:08:58.179Z,4.70
2018-04-18T14:11:25.818Z,4.32
2018-04-18T14:13:54.063Z,6.05
2018-04-18T14:16:21.526Z,3.42
2018-04-18T14:18:49.784Z,3.63
2018-04-18T14:24:14.603Z,2.65
2018-04-18T14:26:42.151Z,4.43
2018-04-18T14:29:09.824Z,3.30
2018-04-18T14:31:37.326Z,5.93
2018-04-18T14:34:04.896Z,3.67
2018-04-18T14:36:42.929Z,4.18
2018-04-18T14:39:10.507Z,2.70
2018-04-18T14:41:38.035Z,4.05
2018-04-18T14:44:12.481Z,5.50
2018-04-18T14:46:41.456Z,6.03
2018-04-18T14:49:12.679Z,5.15
2018-04-18T14:54:40.764Z,3.37
2018-04-18T14:57:11.264Z,4.43
2018-04-18T14:59:39.829Z,5.18
2018-04-18T15:02:07.409Z,5.07
2018-04-18T15:04:41.039Z,4.35
2018-04-18T15:07:14.875Z,3.50
2018-04-18T15:09:43.447Z,4.10
2018-04-18T15:12:11.193Z,3.13
2018-04-18T15:14:42.545Z,3.97
2018-04-18T15:17:11.304Z,2.30
2018-04-18T15:19:38.890Z,3.27
2018-04-18T15:22:07.204Z,2.40
2018-04-18T15:24:41.654Z,2.55
2018-04-18T15:27:14.609Z,2.37
2018-04-18T15:29:42.281Z,5.53
2018-04-18T15:32:18.728Z,2.30
2018-04-18T15:34:46.256Z,5.20
2018-04-18T15:37:13.766Z,4.20
2018-04-18T15:39:41.733Z,4.40
2018-04-18T15:42:09.421Z,4.53
2018-04-18T15:47:33.589Z,4.68
2018-04-18T15:50:11.096Z,3.42
2018-04-18T15:52:39.582Z,2.80
2018-04-18T15:55:13.605Z,4.45
2018-04-18T15:57:41.445Z,4.17
2018-04-18T16:00:11.046Z,5.30
2018-04-18T16:02:41.467Z,3.78
2018-04-18T16:05:11.371Z,4.10
2018-04-18T16:07:40.789Z,4.07
2018-04-18T16:10:12.651Z,5.72
2018-04-18T16:12:40.949Z,2.83
2018-04-18T16:15:09.248Z,2.17
2018-04-18T16:17:42.270Z,3.58
2018-04-18T16:20:12.787Z,4.05
2018-04-18T16:22:41.726Z,3.72
2018-04-18T16:25:09.225Z,3.13
2018-04-18T16:27:36.771Z,3.40
2018-04-18T16:30:27.226Z,4.32
2018-04-18T16:33:13.528Z,1.95
2018-04-18T16:35:44.691Z,2.97
2018-04-18T16:38:12.340Z,3.97
2018-04-18T16:40:41.134Z,2.90
2018-04-18T16:43:12.135Z,5.32
2018-04-18T16:45:44.055Z,3.17
2018-04-18T16:48:11.603Z,3.67
2018-04-18T16:50:42.458Z,2.60
2018-04-18T16:53:10.855Z,3.20
2018-04-18T16:58:42.374Z,2.12
2018-04-18T17:01:16.523Z,2.33
2018-04-18T17:08:39.891Z,2.50
2018-04-18T17:16:41.234Z,3.60
2018-04-18T17:19:08.801Z,2.55
2018-04-18T17:21:41.639Z,5.13
2018-04-18T17:24:13.436Z,7.18
2018-04-18T17:26:40.922Z,5.82
2018-04-18T17:29:10.981Z,4.50
2018-04-18T17:31:41.014Z,6.65
2018-04-18T17:34:11.254Z,2.47
2018-04-18T17:36:38.760Z,4.00
2018-04-18T17:39:11.509Z,7.47
2018-04-18T17:41:42.447Z,6.07
2018-04-18T17:44:10.964Z,4.75
2018-04-18T17:46:41.759Z,9.43
2018-04-18T17:49:15.252Z,6.78
2018-04-18T17:51:45.598Z,3.90
2018-04-18T17:54:15.928Z,6.03
2018-04-18T17:56:44.382Z,3.45
2018-04-18T17:59:12.282Z,4.13
2018-04-18T18:01:41.313Z,5.28
2018-04-18T18:04:11.435Z,3.62
2018-04-18T18:06:40.483Z,5.75
2018-04-18T18:09:12.966Z,6.85
2018-04-18T18:11:42.254Z,4.87
2018-04-18T18:14:11.406Z,4.50
2018-04-18T18:19:41.981Z,4.93
2018-04-18T18:22:13.293Z,4.83
2018-04-18T18:27:45.663Z,4.15
2018-04-18T22:48:43.874Z,5.00
2018-04-18T22:51:16.330Z,5.27
2018-04-18T22:53:45.102Z,4.78
2018-04-18T22:56:18.321Z,7.20
2018-04-18T22:58:51.536Z,4.37
2018-04-18T23:01:20.431Z,9.10
2018-04-18T23:03:52.948Z,8.20
2018-04-18T23:06:23.893Z,6.77
2018-04-18T23:08:55.620Z,6.97
2018-04-18T23:11:44.034Z,6.55
2018-04-18T23:14:16.397Z,4.73
2018-04-18T23:16:53.504Z,7.45
2018-04-18T23:19:23.609Z,7.78
2018-04-18T23:21:54.923Z,5.28
2018-04-18T23:24:25.171Z,6.62
2018-04-18T23:27:00.643Z,4.82
2018-04-18T23:29:32.967Z,5.80
2018-04-18T23:32:15.275Z,4.97
2018-04-18T23:34:42.869Z,5.10
2018-04-18T23:37:15.169Z,7.03
2018-04-18T23:39:51.720Z,5.75
2018-04-18T23:42:31.500Z,7.70
2018-04-18T23:45:13.624Z,6.25
2018-04-18T23:47:44.449Z,6.50
2018-04-18T23:50:15.315Z,5.60
2018-04-18T23:52:46.389Z,4.35
2018-04-18T23:55:15.563Z,5.82
2018-04-18T23:57:47.120Z,6.32
